createdAt,value
2022-09-12T00:01:17.190Z,100.00
2022-09-12T00:03:45.341Z,100.00
2022-09-12T00:06:20.424Z,100.00
2022-09-12T00:08:50.802Z,100.00
2022-09-12T00:11:19.175Z,100.00
2022-09-12T00:13:47.040Z,100.00
2022-09-12T00:16:21.755Z,100.00
2022-09-12T00:18:49.958Z,100.00
2022-09-12T00:21:19.192Z,100.00
2022-09-12T00:23:47.986Z,100.00
2022-09-12T00:26:17.141Z,100.00
2022-09-12T00:28:45.888Z,100.00
2022-09-12T00:31:16.197Z,100.00
2022-09-12T00:33:45.945Z,100.00
2022-09-12T00:36:15.888Z,100.00
2022-09-12T00:38:44.176Z,100.00
2022-09-12T00:41:17.087Z,100.00
2022-09-12T00:43:46.727Z,100.00
2022-09-12T00:46:23.520Z,100.00
2022-09-12T00:48:57.826Z,100.00
2022-09-12T00:51:25.671Z,100.00
2022-09-12T00:53:56.176Z,100.00
2022-09-12T00:56:25.396Z,100.00
2022-09-12T00:58:58.970Z,100.00
2022-09-12T01:01:31.742Z,100.00
2022-09-12T01:04:02.706Z,100.00
2022-09-12T01:06:36.878Z,100.00
2022-09-12T01:09:05.536Z,100.00
2022-09-12T01:11:35.407Z,100.00
2022-09-12T01:14:03.292Z,100.00
2022-09-12T01:16:31.190Z,100.00
2022-09-12T01:19:15.294Z,100.00
2022-09-12T01:21:52.689Z,100.00
2022-09-12T01:24:51.471Z,100.00
2022-09-12T01:27:44.662Z,100.00
2022-09-12T01:30:42.147Z,100.00
2022-09-12T01:33:35.123Z,100.00
2022-09-12T01:36:17.300Z,100.00
2022-09-12T01:38:55.008Z,100.00
2022-09-12T01:41:28.007Z,100.00
2022-09-12T01:44:03.407Z,100.00
2022-09-12T01:46:40.185Z,100.00
2022-09-12T01:49:13.245Z,100.00
2022-09-12T01:51:46.429Z,100.00
2022-09-12T01:54:20.669Z,100.00
2022-09-12T01:56:53.484Z,100.00
2022-09-12T01:59:26.644Z,100.00
2022-09-12T02:02:02.218Z,100.00
2022-09-12T02:04:34.554Z,100.00
2022-09-12T02:07:08.678Z,100.00
2022-09-12T02:09:41.764Z,100.00
2022-09-12T02:12:13.017Z,100.00
2022-09-12T02:14:46.451Z,100.00
2022-09-12T02:17:20.365Z,100.00
2022-09-12T02:19:53.061Z,100.00
2022-09-12T02:22:23.783Z,100.00
2022-09-12T02:24:55.127Z,100.00
2022-09-12T02:27:25.163Z,100.00
2022-09-12T02:29:53.334Z,100.00
2022-09-12T02:32:30.882Z,100.00
2022-09-12T02:35:06.932Z,100.00
2022-09-12T02:37:51.124Z,100.00
2022-09-12T02:40:19.590Z,100.00
2022-09-12T02:42:47.439Z,100.00
2022-09-12T02:45:15.323Z,100.00
2022-09-12T02:47:49.758Z,100.00
2022-09-12T02:50:17.860Z,100.00
2022-09-12T02:52:46.356Z,100.00
2022-09-12T02:55:16.333Z,100.00
2022-09-12T02:57:44.277Z,100.00
2022-09-12T03:00:14.038Z,100.00
2022-09-12T03:02:59.552Z,100.00
2022-09-12T03:05:32.670Z,100.00
2022-09-12T03:08:27.433Z,100.00
2022-09-12T03:11:21.992Z,100.00
2022-09-12T03:14:01.919Z,100.00
2022-09-12T03:16:39.964Z,100.00
2022-09-12T03:19:19.851Z,100.00
2022-09-12T03:21:59.493Z,100.00
2022-09-12T03:24:33.014Z,100.00
2022-09-12T03:27:08.588Z,100.00
2022-09-12T03:29:37.937Z,100.00
2022-09-12T03:32:05.733Z,100.00
2022-09-12T03:34:34.915Z,100.00
2022-09-12T03:37:02.795Z,100.00
2022-09-12T03:39:30.969Z,100.00
2022-09-12T03:41:58.915Z,100.00
2022-09-12T03:44:27.117Z,100.00
2022-09-12T03:46:55.197Z,100.00
2022-09-12T03:49:23.033Z,100.00
2022-09-12T03:51:52.125Z,100.00
2022-09-12T03:54:19.864Z,100.00
2022-09-12T03:56:47.660Z,100.00
2022-09-12T03:59:15.431Z,100.00
2022-09-12T04:01:43.190Z,100.00
2022-09-12T04:04:10.978Z,100.00
2022-09-12T04:06:38.734Z,100.00
2022-09-12T04:09:07.814Z,100.00
2022-09-12T04:11:35.813Z,100.00
2022-09-12T04:14:03.567Z,100.00
2022-09-12T04:16:32.247Z,100.00
2022-09-12T04:19:00.319Z,100.00
2022-09-12T04:21:28.481Z,100.00
2022-09-12T04:23:56.356Z,100.00
2022-09-12T04:26:25.531Z,100.00
2022-09-12T04:28:57.515Z,100.00
2022-09-12T04:31:26.371Z,100.00
2022-09-12T04:33:55.090Z,100.00
2022-09-12T04:36:23.371Z,100.00
2022-09-12T04:38:51.586Z,100.00
2022-09-12T04:41:21.808Z,100.00
2022-09-12T04:43:54.051Z,100.00
2022-09-12T04:46:22.285Z,100.00
2022-09-12T04:48:53.385Z,100.00
2022-09-12T04:51:27.647Z,100.00
2022-09-12T04:53:57.556Z,100.00
2022-09-12T04:56:26.304Z,100.00
2022-09-12T04:58:55.700Z,100.00
2022-09-12T05:01:23.873Z,100.00
2022-09-12T05:03:52.512Z,100.00
2022-09-12T05:06:22.318Z,100.00
2022-09-12T05:08:50.312Z,100.00
2022-09-12T05:11:24.563Z,100.00
2022-09-12T05:13:54.941Z,100.00
2022-09-12T05:16:23.917Z,100.00
2022-09-12T05:18:51.749Z,100.00
2022-09-12T05:21:23.062Z,100.00
2022-09-12T05:23:52.914Z,100.00
2022-09-12T05:26:21.655Z,100.00
2022-09-12T05:28:50.633Z,100.00
2022-09-12T05:31:21.870Z,100.00
2022-09-12T05:33:51.536Z,100.00
2022-09-12T05:36:21.120Z,100.00
2022-09-12T05:38:49.420Z,100.00
2022-09-12T05:41:23.007Z,100.00
2022-09-12T05:43:54.150Z,100.00
2022-09-12T05:46:26.201Z,100.00
2022-09-12T05:48:56.674Z,100.00
2022-09-12T05:51:26.932Z,100.00
2022-09-12T05:53:56.622Z,100.00
2022-09-12T05:56:26.478Z,100.00
2022-09-12T05:58:56.370Z,100.00
2022-09-12T06:01:27.138Z,100.00
2022-09-12T06:03:56.705Z,100.00
2022-09-12T06:06:26.269Z,100.00
2022-09-12T06:08:57.857Z,100.00
2022-09-12T06:11:28.269Z,100.00
2022-09-12T06:13:56.798Z,100.00
2022-09-12T06:16:28.075Z,100.00
2022-09-12T06:18:58.016Z,100.00
2022-09-12T06:21:28.326Z,100.00
2022-09-12T06:23:56.952Z,100.00
2022-09-12T06:26:25.699Z,100.00
2022-09-12T06:28:55.696Z,100.00
2022-09-12T06:31:27.227Z,100.00
2022-09-12T06:33:56.242Z,100.00
2022-09-12T06:36:26.414Z,100.00
2022-09-12T06:39:00.897Z,100.00
2022-09-12T06:41:29.981Z,100.00
2022-09-12T06:43:58.670Z,100.00
2022-09-12T06:46:28.566Z,100.00
2022-09-12T06:48:57.226Z,100.00
2022-09-12T06:51:25.459Z,100.00
2022-09-12T06:53:56.482Z,100.00
2022-09-12T06:56:26.482Z,100.00
2022-09-12T06:58:56.708Z,100.00
2022-09-12T07:01:27.977Z,100.00
2022-09-12T07:03:57.521Z,100.00
2022-09-12T07:06:31.547Z,100.00
2022-09-12T07:09:00.465Z,100.00
2022-09-12T07:11:31.662Z,100.00
2022-09-12T07:14:00.952Z,100.00
2022-09-12T07:16:30.962Z,100.00
2022-09-12T07:19:00.756Z,100.00
2022-09-12T07:21:29.988Z,100.00
2022-09-12T07:23:58.782Z,100.00
2022-09-12T07:26:28.248Z,100.00
2022-09-12T07:29:12.728Z,100.00
2022-09-12T07:31:47.429Z,100.00
2022-09-12T07:34:15.354Z,100.00
2022-09-12T07:36:43.322Z,100.00
2022-09-12T07:39:12.338Z,100.00
2022-09-12T07:41:40.345Z,100.00
2022-09-12T07:44:08.334Z,100.00
2022-09-12T07:46:36.435Z,100.00
2022-09-12T07:49:05.595Z,100.00
2022-09-12T07:51:33.509Z,100.00
2022-09-12T07:54:01.471Z,100.00
2022-09-12T07:56:32.754Z,100.00
2022-09-12T07:59:02.449Z,100.00
2022-09-12T08:01:31.135Z,100.00
2022-09-12T08:04:00.181Z,100.00
2022-09-12T08:06:32.155Z,100.00
2022-09-12T08:09:00.673Z,100.00
2022-09-12T08:11:30.063Z,100.00
2022-09-12T08:13:58.685Z,100.00
2022-09-12T08:16:28.270Z,100.00
2022-09-12T08:18:56.819Z,100.00
2022-09-12T08:21:26.439Z,100.00
2022-09-12T08:23:57.614Z,100.00
2022-09-12T08:26:26.420Z,100.00
2022-09-12T08:28:54.887Z,99.47
2022-09-12T08:31:24.659Z,97.80
2022-09-12T08:33:53.351Z,95.04
2022-09-12T08:36:22.732Z,95.94
2022-09-12T08:38:56.294Z,98.64
2022-09-12T08:41:31.865Z,97.36
2022-09-12T08:44:33.173Z,94.23
2022-09-12T08:47:21.122Z,93.20
2022-09-12T08:49:56.868Z,92.19
2022-09-12T08:52:30.034Z,91.15
2022-09-12T08:54:58.324Z,91.79
2022-09-12T08:57:27.515Z,91.50
2022-09-12T08:59:55.839Z,90.85
2022-09-12T09:02:38.860Z,91.63
2022-09-12T09:05:20.100Z,91.41
2022-09-12T09:08:10.701Z,89.46
2022-09-12T09:10:48.811Z,87.38
2022-09-12T09:13:49.134Z,83.34
2022-09-12T09:16:25.494Z,84.45
2022-09-12T09:18:55.806Z,83.73
2022-09-12T09:21:31.038Z,81.42
2022-09-12T09:24:05.895Z,84.25
2022-09-12T09:26:43.029Z,79.53
2022-09-12T09:29:18.677Z,79.60
2022-09-12T09:31:49.592Z,77.79
2022-09-12T09:34:22.425Z,78.51
2022-09-12T09:36:52.590Z,75.50
2022-09-12T09:39:32.394Z,76.72
2022-09-12T09:42:12.698Z,78.67
2022-09-12T09:44:44.069Z,78.96
2022-09-12T09:47:13.592Z,77.89
2022-09-12T09:49:42.675Z,79.11
2022-09-12T09:52:15.982Z,76.84
2022-09-12T09:54:49.667Z,74.49
2022-09-12T09:57:43.042Z,75.31
2022-09-12T10:00:37.099Z,68.41
2022-09-12T10:03:22.233Z,69.05
2022-09-12T10:05:52.059Z,70.04
2022-09-12T10:08:26.362Z,70.27
2022-09-12T10:10:58.071Z,68.99
2022-09-12T10:13:33.609Z,71.47
2022-09-12T10:16:05.590Z,73.35
2022-09-12T10:18:43.462Z,71.49
2022-09-12T10:21:32.051Z,72.37
2022-09-12T10:24:04.784Z,70.33
2022-09-12T10:26:36.820Z,69.04
2022-09-12T10:29:13.916Z,68.60
2022-09-12T10:31:51.847Z,67.05
2022-09-12T10:34:31.249Z,67.26
2022-09-12T10:37:05.889Z,66.20
2022-09-12T10:39:36.555Z,65.20
2022-09-12T10:42:05.648Z,62.57
2022-09-12T10:44:35.481Z,61.43
2022-09-12T10:47:24.005Z,64.20
2022-09-12T10:49:52.089Z,62.88
2022-09-12T10:52:24.382Z,62.26
2022-09-12T10:54:52.668Z,60.36
2022-09-12T10:57:54.161Z,59.83
2022-09-12T11:00:28.059Z,61.21
2022-09-12T11:03:10.801Z,56.85
2022-09-12T11:05:54.935Z,55.76
2022-09-12T11:08:53.776Z,54.25
2022-09-12T11:11:40.924Z,50.52
2022-09-12T11:14:21.670Z,53.64
2022-09-12T11:16:57.090Z,50.97
2022-09-12T11:19:43.205Z,54.06
2022-09-12T11:22:29.848Z,55.75
2022-09-12T11:25:15.416Z,59.56
2022-09-12T11:28:04.160Z,60.48
2022-09-12T11:30:40.193Z,61.08
2022-09-12T11:33:24.331Z,54.86
2022-09-12T11:35:57.617Z,56.38
2022-09-12T11:38:51.419Z,55.30
2022-09-12T11:41:25.309Z,54.81
2022-09-12T11:43:58.877Z,56.40
2022-09-12T11:46:34.825Z,58.53
2022-09-12T11:49:13.591Z,54.62
2022-09-12T11:51:49.616Z,51.45
2022-09-12T11:54:25.514Z,53.89
2022-09-12T11:57:06.749Z,54.43
2022-09-12T11:59:44.373Z,54.06
2022-09-12T12:02:15.813Z,51.41
2022-09-12T12:05:01.570Z,53.82
2022-09-12T12:07:45.187Z,47.06
2022-09-12T12:10:27.176Z,45.24
2022-09-12T12:12:58.540Z,45.29
2022-09-12T12:15:28.346Z,45.13
2022-09-12T12:18:09.600Z,38.80
2022-09-12T12:20:38.029Z,41.24
2022-09-12T12:23:08.257Z,41.12
2022-09-12T12:25:42.933Z,39.17
2022-09-12T12:28:11.239Z,44.98
2022-09-12T12:31:02.319Z,43.30
2022-09-12T12:34:09.983Z,41.86
2022-09-12T12:36:43.495Z,37.73
2022-09-12T12:39:45.722Z,39.00
2022-09-12T12:43:07.998Z,40.36
2022-09-12T12:46:06.205Z,41.12
2022-09-12T12:48:51.917Z,43.37
2022-09-12T12:51:55.998Z,43.07
2022-09-12T12:54:50.663Z,42.91
2022-09-12T12:57:24.375Z,44.48
2022-09-12T12:59:54.947Z,43.62
2022-09-12T13:02:29.591Z,42.86
2022-09-12T13:04:59.615Z,41.16
2022-09-12T13:07:32.372Z,43.52
2022-09-12T13:10:01.587Z,44.28
2022-09-12T13:12:33.847Z,45.34
2022-09-12T13:15:03.466Z,43.65
2022-09-12T13:17:38.816Z,43.62
2022-09-12T13:20:29.187Z,44.81
2022-09-12T13:22:58.617Z,45.67
2022-09-12T13:25:31.009Z,47.07
2022-09-12T13:28:02.694Z,45.94
2022-09-12T13:30:33.555Z,48.19
2022-09-12T13:33:11.872Z,48.67
2022-09-12T13:35:51.217Z,47.54
2022-09-12T13:38:29.046Z,48.73
2022-09-12T13:41:16.209Z,47.50
2022-09-12T13:43:46.888Z,47.58
2022-09-12T13:46:19.355Z,49.15
2022-09-12T13:48:49.201Z,50.53
2022-09-12T13:51:25.184Z,51.49
2022-09-12T13:53:56.234Z,51.11
2022-09-12T13:56:24.382Z,50.72
2022-09-12T13:58:55.517Z,52.88
2022-09-12T14:01:24.533Z,52.83
2022-09-12T14:04:13.117Z,51.81
2022-09-12T14:06:49.482Z,51.42
2022-09-12T14:09:25.371Z,52.36
2022-09-12T14:11:54.519Z,53.94
2022-09-12T14:14:31.332Z,52.85
2022-09-12T14:17:00.525Z,54.17
2022-09-12T14:19:30.135Z,54.22
2022-09-12T14:21:58.403Z,52.70
2022-09-12T14:24:26.663Z,52.55
2022-09-12T14:26:57.660Z,52.26
2022-09-12T14:29:26.273Z,52.69
2022-09-12T14:32:05.802Z,53.33
2022-09-12T14:34:35.959Z,52.25
2022-09-12T14:37:08.494Z,53.06
2022-09-12T14:39:40.654Z,53.65
2022-09-12T14:42:16.347Z,54.88
2022-09-12T14:44:54.816Z,55.05
2022-09-12T14:47:25.490Z,55.61
2022-09-12T14:49:55.725Z,53.52
2022-09-12T14:52:27.647Z,55.06
2022-09-12T14:55:01.540Z,55.45
2022-09-12T14:57:36.710Z,54.44
2022-09-12T15:00:20.876Z,54.91
2022-09-12T15:02:49.455Z,55.37
2022-09-12T15:05:29.460Z,56.76
2022-09-12T15:08:00.490Z,53.11
2022-09-12T15:10:32.279Z,51.97
2022-09-12T15:13:21.765Z,54.19
2022-09-12T15:15:52.821Z,55.82
2022-09-12T15:18:23.424Z,56.71
2022-09-12T15:20:54.192Z,56.25
2022-09-12T15:23:32.103Z,55.61
2022-09-12T15:26:00.327Z,55.02
2022-09-12T15:28:28.907Z,55.23
2022-09-12T15:30:57.736Z,56.05
2022-09-12T15:33:26.359Z,55.43
2022-09-12T15:35:55.559Z,54.89
2022-09-12T15:38:26.514Z,55.64
2022-09-12T15:40:55.009Z,54.88
2022-09-12T15:43:23.572Z,54.12
2022-09-12T15:45:52.330Z,56.07
2022-09-12T15:48:21.139Z,55.85
2022-09-12T15:50:49.153Z,54.77
2022-09-12T15:53:18.620Z,55.33
2022-09-12T15:55:46.541Z,56.36
2022-09-12T15:58:14.412Z,56.76
2022-09-12T16:00:42.197Z,58.21
2022-09-12T16:03:22.755Z,59.55
2022-09-12T16:05:51.084Z,60.53
2022-09-12T16:08:20.251Z,60.93
2022-09-12T16:10:50.588Z,61.67
2022-09-12T16:13:18.368Z,64.24
2022-09-12T16:15:46.426Z,62.65
2022-09-12T16:18:14.246Z,64.48
2022-09-12T16:20:42.197Z,65.61
2022-09-12T16:23:11.915Z,66.82
2022-09-12T16:25:41.460Z,66.71
2022-09-12T16:28:09.750Z,67.07
2022-09-12T16:30:37.572Z,66.84
2022-09-12T16:33:05.424Z,67.83
2022-09-12T16:35:33.616Z,68.27
2022-09-12T16:38:01.988Z,69.17
2022-09-12T16:40:31.066Z,70.33
2022-09-12T16:43:00.399Z,70.49
2022-09-12T16:45:28.239Z,71.87
2022-09-12T16:47:56.141Z,71.33
2022-09-12T16:50:23.912Z,72.08
2022-09-12T16:52:51.858Z,72.45
2022-09-12T16:55:19.873Z,75.52
2022-09-12T16:57:49.321Z,72.84
2022-09-12T17:00:19.321Z,71.42
2022-09-12T17:02:48.343Z,73.00
2022-09-12T17:05:17.240Z,73.91
2022-09-12T17:07:46.066Z,74.61
2022-09-12T17:10:14.008Z,74.30
2022-09-12T17:12:41.825Z,75.28
2022-09-12T17:15:12.703Z,76.83
2022-09-12T17:17:41.967Z,78.13
2022-09-12T17:20:10.109Z,77.41
2022-09-12T17:22:38.102Z,77.19
2022-09-12T17:25:06.832Z,78.36
2022-09-12T17:27:34.697Z,78.72
2022-09-12T17:30:02.540Z,79.55
2022-09-12T17:32:30.544Z,79.27
2022-09-12T17:35:00.075Z,79.06
2022-09-12T17:37:28.134Z,79.73
2022-09-12T17:39:56.160Z,79.49
2022-09-12T17:42:24.343Z,80.37
2022-09-12T17:44:52.950Z,82.79
2022-09-12T17:47:20.776Z,83.12
2022-09-12T17:49:50.527Z,83.35
2022-09-12T17:52:19.730Z,83.56
2022-09-12T17:54:47.515Z,84.83
2022-09-12T17:57:15.539Z,85.48
2022-09-12T17:59:43.437Z,85.34
2022-09-12T18:02:13.267Z,86.83
2022-09-12T18:04:41.838Z,87.97
2022-09-12T18:07:09.873Z,88.73
2022-09-12T18:09:39.099Z,89.53
2022-09-12T18:12:07.318Z,90.31
2022-09-12T18:14:35.209Z,90.27
2022-09-12T18:17:03.122Z,91.00
2022-09-12T18:19:31.965Z,90.71
2022-09-12T18:21:59.848Z,91.73
2022-09-12T18:24:27.932Z,90.52
2022-09-12T18:26:57.626Z,90.97
2022-09-12T18:29:27.687Z,92.44
2022-09-12T18:31:56.251Z,93.85
2022-09-12T18:34:24.210Z,94.69
2022-09-12T18:36:54.307Z,95.30
2022-09-12T18:39:27.685Z,94.34
2022-09-12T18:41:58.102Z,94.86
2022-09-12T18:44:26.047Z,95.21
2022-09-12T18:46:54.402Z,94.29
2022-09-12T18:49:22.275Z,92.86
2022-09-12T18:51:50.481Z,92.20
2022-09-12T18:54:19.169Z,94.05
2022-09-12T18:56:47.671Z,94.92
2022-09-12T18:59:17.387Z,96.53
2022-09-12T19:01:47.278Z,97.22
2022-09-12T19:04:16.325Z,99.41
2022-09-12T19:06:47.030Z,100.00
2022-09-12T19:09:16.870Z,100.00
2022-09-12T19:11:49.485Z,100.00
2022-09-12T19:14:22.516Z,100.00
2022-09-12T19:16:52.098Z,100.00
2022-09-12T19:19:21.906Z,100.00
2022-09-12T19:21:50.111Z,100.00
2022-09-12T19:24:18.540Z,100.00
2022-09-12T19:26:47.145Z,100.00
2022-09-12T19:29:18.569Z,100.00
2022-09-12T19:31:48.325Z,100.00
2022-09-12T19:34:17.411Z,100.00
2022-09-12T19:36:47.137Z,100.00
2022-09-12T19:39:16.800Z,100.00
2022-09-12T19:41:45.392Z,100.00
2022-09-12T19:44:13.686Z,100.00
2022-09-12T19:46:41.966Z,100.00
2022-09-12T19:49:13.335Z,100.00
2022-09-12T19:51:41.703Z,100.00
2022-09-12T19:54:09.880Z,100.00
2022-09-12T19:56:37.717Z,100.00
2022-09-12T19:59:05.819Z,100.00
2022-09-12T20:01:34.687Z,100.00
2022-09-12T20:04:03.409Z,100.00
2022-09-12T20:06:32.768Z,100.00
2022-09-12T20:09:00.680Z,100.00
2022-09-12T20:11:31.410Z,100.00
2022-09-12T20:13:59.291Z,100.00
2022-09-12T20:16:30.061Z,100.00
2022-09-12T20:19:00.417Z,100.00
2022-09-12T20:21:31.674Z,100.00
2022-09-12T20:24:06.577Z,100.00
2022-09-12T20:26:35.016Z,100.00
2022-09-12T20:29:03.626Z,100.00
2022-09-12T20:31:32.066Z,100.00
2022-09-12T20:34:00.570Z,100.00
2022-09-12T20:36:29.026Z,100.00
2022-09-12T20:39:01.327Z,100.00
2022-09-12T20:41:35.658Z,100.00
2022-09-12T20:44:03.739Z,100.00
2022-09-12T20:46:31.919Z,100.00
2022-09-12T20:49:00.254Z,100.00
2022-09-12T20:51:30.339Z,100.00
2022-09-12T20:53:59.720Z,100.00
2022-09-12T20:56:31.701Z,100.00
2022-09-12T20:59:00.554Z,100.00
2022-09-12T21:01:29.673Z,100.00
2022-09-12T21:03:59.564Z,100.00
2022-09-12T21:06:31.275Z,100.00
2022-09-12T21:08:59.811Z,100.00
2022-09-12T21:11:28.567Z,100.00
2022-09-12T21:13:58.826Z,100.00
2022-09-12T21:16:27.114Z,100.00
2022-09-12T21:18:56.482Z,100.00
2022-09-12T21:21:25.481Z,100.00
2022-09-12T21:23:55.342Z,100.00
2022-09-12T21:26:23.215Z,100.00
2022-09-12T21:28:51.093Z,100.00
2022-09-12T21:31:20.413Z,100.00
2022-09-12T21:33:49.088Z,100.00
2022-09-12T21:36:17.053Z,100.00
2022-09-12T21:38:45.412Z,100.00
2022-09-12T21:41:15.422Z,100.00
2022-09-12T21:43:43.875Z,100.00
2022-09-12T21:46:14.302Z,100.00
2022-09-12T21:48:43.644Z,100.00
2022-09-12T21:51:11.546Z,100.00
2022-09-12T21:53:39.396Z,100.00
2022-09-12T21:56:09.504Z,100.00
2022-09-12T21:58:38.361Z,100.00
2022-09-12T22:01:08.568Z,100.00
2022-09-12T22:03:36.637Z,100.00
2022-09-12T22:06:08.729Z,100.00
2022-09-12T22:08:38.866Z,100.00
2022-09-12T22:11:09.628Z,100.00
2022-09-12T22:13:39.193Z,100.00
2022-09-12T22:16:07.564Z,100.00
2022-09-12T22:18:36.047Z,100.00
2022-09-12T22:21:05.961Z,100.00
2022-09-12T22:23:52.798Z,100.00
2022-09-12T22:26:21.624Z,100.00
2022-09-12T22:28:50.296Z,100.00
2022-09-12T22:31:18.815Z,100.00
2022-09-12T22:33:46.808Z,100.00
2022-09-12T22:36:14.667Z,100.00
2022-09-12T22:38:43.914Z,100.00
2022-09-12T22:41:13.058Z,100.00
2022-09-12T22:43:41.144Z,100.00
2022-09-12T22:46:09.502Z,100.00
2022-09-12T22:48:37.729Z,100.00
2022-09-12T22:51:06.214Z,100.00
2022-09-12T22:53:34.497Z,100.00
2022-09-12T22:56:05.227Z,100.00
2022-09-12T22:58:33.246Z,100.00
2022-09-12T23:01:01.098Z,100.00
2022-09-12T23:03:29.059Z,100.00
2022-09-12T23:05:56.853Z,100.00
2022-09-12T23:08:27.383Z,100.00
2022-09-12T23:11:02.603Z,100.00
2022-09-12T23:13:30.925Z,100.00
2022-09-12T23:16:00.130Z,100.00
2022-09-12T23:18:28.380Z,100.00
2022-09-12T23:21:00.344Z,100.00
2022-09-12T23:23:28.549Z,100.00
2022-09-12T23:26:06.037Z,100.00
2022-09-12T23:28:34.581Z,100.00
2022-09-12T23:31:03.213Z,100.00
2022-09-12T23:33:32.657Z,100.00
2022-09-12T23:36:02.251Z,100.00
2022-09-12T23:38:30.882Z,100.00
2022-09-12T23:40:59.139Z,100.00
2022-09-12T23:43:28.950Z,100.00
2022-09-12T23:45:58.795Z,100.00
2022-09-12T23:48:27.448Z,100.00
2022-09-12T23:50:55.451Z,100.00
2022-09-12T23:53:23.552Z,100.00
2022-09-12T23:55:51.655Z,100.00
2022-09-12T23:58:19.787Z,100.00
